createdAt,value
2018-09-01T00:01:36.080Z,7.57
2018-09-01T00:04:04.232Z,4.53
2018-09-01T00:06:32.404Z,7.13
2018-09-01T00:09:00.561Z,4.83
2018-09-01T00:11:28.823Z,6.27
2018-09-01T00:13:57.000Z,4.43
2018-09-01T00:16:25.168Z,7.07
2018-09-01T00:18:53.363Z,5.17
2018-09-01T00:21:21.528Z,4.90
2018-09-01T00:23:49.706Z,6.10
2018-09-01T00:26:17.887Z,4.60
2018-09-01T00:28:46.085Z,4.83
2018-09-01T00:31:14.242Z,6.53
2018-09-01T00:33:42.424Z,6.77
2018-09-01T00:36:10.647Z,4.73
2018-09-01T00:38:44.325Z,3.73
2018-09-01T00:41:12.488Z,8.07
2018-09-01T00:43:40.640Z,5.97
2018-09-01T00:46:08.797Z,3.67
2018-09-01T00:48:36.956Z,6.03
2018-09-01T00:51:05.317Z,5.20
2018-09-01T00:53:33.500Z,6.17
2018-09-01T00:56:01.665Z,8.33
2018-09-01T00:58:29.864Z,4.87
2018-09-01T01:00:58.028Z,4.07
2018-09-01T01:03:26.216Z,7.37
2018-09-01T01:05:54.400Z,3.33
2018-09-01T01:08:22.580Z,5.83
2018-09-01T01:10:50.763Z,4.60
2018-09-01T01:13:18.918Z,5.10
2018-09-01T01:15:47.148Z,6.83
2018-09-01T01:18:15.300Z,6.53
2018-09-01T01:20:43.484Z,5.47
2018-09-01T01:23:11.665Z,4.93
2018-09-01T01:25:39.836Z,4.50
2018-09-01T01:28:08.029Z,5.57
2018-09-01T01:30:36.205Z,5.73
2018-09-01T01:33:04.384Z,5.47
2018-09-01T01:35:33.273Z,4.50
2018-09-01T01:38:01.444Z,5.90
2018-09-01T01:40:29.640Z,5.23
2018-09-01T01:42:57.872Z,7.40
2018-09-01T01:45:26.056Z,4.03
2018-09-01T01:47:54.229Z,5.30
2018-09-01T01:50:22.429Z,4.87
2018-09-01T01:52:50.605Z,4.47
2018-09-01T01:55:18.808Z,4.27
2018-09-01T01:57:49.169Z,5.07
2018-09-01T02:00:17.612Z,5.30
2018-09-01T02:02:46.236Z,4.00
2018-09-01T02:05:21.365Z,5.27
2018-09-01T02:07:50.561Z,5.27
2018-09-01T02:10:18.728Z,4.90
2018-09-01T02:12:46.999Z,4.30
2018-09-01T02:15:15.169Z,6.73
2018-09-01T02:17:43.331Z,4.87
2018-09-01T02:20:11.525Z,5.57
2018-09-01T02:22:39.709Z,6.23
2018-09-01T02:25:07.876Z,6.67
2018-09-01T02:27:36.070Z,7.03
2018-09-01T02:30:04.385Z,6.70
2018-09-01T02:32:32.544Z,10.90
2018-09-01T02:35:00.714Z,7.13
2018-09-01T02:37:28.868Z,4.97
2018-09-01T02:39:57.034Z,3.90
2018-09-01T02:42:25.221Z,3.93
2018-09-01T02:44:53.531Z,6.80
2018-09-01T02:47:21.725Z,4.53
2018-09-01T02:49:49.892Z,6.37
2018-09-01T02:52:18.061Z,3.13
2018-09-01T02:54:46.249Z,5.77
2018-09-01T02:57:14.412Z,5.60
2018-09-01T02:59:42.612Z,3.93
2018-09-01T03:02:10.776Z,6.73
2018-09-01T03:04:38.984Z,7.67
2018-09-01T03:07:07.201Z,7.73
2018-09-01T03:09:35.413Z,5.77
2018-09-01T03:12:03.606Z,4.33
2018-09-01T03:14:31.756Z,7.00
2018-09-01T03:16:59.921Z,5.67
2018-09-01T03:19:28.107Z,7.17
2018-09-01T03:21:57.144Z,5.70
2018-09-01T03:24:25.322Z,7.03
2018-09-01T03:26:53.513Z,8.93
2018-09-01T03:29:21.681Z,5.80
2018-09-01T03:31:49.844Z,6.60
2018-09-01T03:34:18.060Z,5.67
2018-09-01T03:36:46.236Z,4.57
2018-09-01T03:39:14.404Z,9.93
2018-09-01T03:41:42.625Z,4.67
2018-09-01T03:44:10.782Z,4.60
2018-09-01T03:46:38.954Z,5.57
2018-09-01T03:49:08.711Z,5.90
2018-09-01T03:51:36.891Z,5.53
2018-09-01T03:54:05.322Z,5.83
2018-09-01T03:56:33.492Z,6.23
2018-09-01T03:59:01.716Z,6.10
2018-09-01T04:01:29.887Z,4.47
2018-09-01T04:03:58.053Z,7.03
2018-09-01T04:06:26.215Z,4.47
2018-09-01T04:08:54.412Z,6.90
2018-09-01T04:11:22.589Z,6.57
2018-09-01T04:13:50.764Z,7.77
2018-09-01T04:16:18.942Z,4.87
2018-09-01T04:18:47.100Z,6.83
2018-09-01T04:21:15.307Z,6.60
2018-09-01T04:23:43.492Z,5.00
2018-09-01T04:26:11.676Z,7.27
2018-09-01T04:28:39.840Z,4.20
2018-09-01T04:31:10.028Z,5.97
2018-09-01T04:33:38.241Z,6.73
2018-09-01T04:36:06.595Z,6.10
2018-09-01T04:38:34.793Z,6.33
2018-09-01T04:41:03.012Z,8.73
2018-09-01T04:43:31.244Z,10.13
2018-09-01T04:45:59.444Z,7.93
2018-09-01T04:48:27.616Z,7.23
2018-09-01T04:50:55.808Z,7.60
2018-09-01T04:53:24.068Z,7.53
2018-09-01T04:55:52.245Z,9.37
2018-09-01T04:58:20.442Z,6.03
2018-09-01T05:00:48.635Z,6.37
2018-09-01T05:03:16.820Z,9.63
2018-09-01T05:05:45.005Z,9.97
2018-09-01T05:08:13.270Z,8.20
2018-09-01T05:10:41.532Z,6.33
2018-09-01T05:13:09.832Z,4.70
2018-09-01T05:15:38.092Z,12.70
2018-09-01T05:18:06.345Z,9.97
2018-09-01T05:20:34.569Z,8.47
2018-09-01T05:23:02.818Z,8.37
2018-09-01T05:25:31.100Z,9.90
2018-09-01T05:27:59.374Z,6.90
2018-09-01T05:30:27.653Z,9.50
2018-09-01T05:32:55.925Z,9.13
2018-09-01T05:35:24.164Z,9.93
2018-09-01T05:37:52.615Z,12.57
2018-09-01T05:40:20.994Z,8.17
2018-09-01T05:42:50.209Z,11.63
2018-09-01T05:45:18.457Z,9.10
2018-09-01T05:47:46.659Z,11.67
2018-09-01T05:50:14.856Z,8.27
2018-09-01T05:52:43.102Z,9.23
2018-09-01T05:55:11.391Z,12.60
2018-09-01T05:57:39.669Z,12.20
2018-09-01T06:00:08.517Z,13.73
2018-09-01T06:02:36.742Z,12.57
2018-09-01T06:05:05.777Z,13.77
2018-09-01T06:07:34.031Z,10.53
2018-09-01T06:10:02.281Z,9.43
2018-09-01T06:12:30.508Z,11.77
2018-09-01T06:14:58.758Z,10.37
2018-09-01T06:17:27.106Z,10.67
2018-09-01T06:19:55.352Z,16.37
2018-09-01T06:22:23.630Z,17.60
2018-09-01T06:24:51.925Z,14.27
2018-09-01T06:27:25.573Z,15.80
2018-09-01T06:29:53.832Z,15.73
2018-09-01T06:32:22.069Z,17.40
2018-09-01T06:34:50.297Z,14.97
2018-09-01T06:37:18.515Z,15.13
2018-09-01T06:39:46.789Z,14.00
2018-09-01T06:42:15.050Z,15.43
2018-09-01T06:44:43.318Z,13.03
2018-09-01T06:47:11.543Z,11.03
2018-09-01T06:49:39.791Z,10.03
2018-09-01T06:52:08.100Z,10.83
2018-09-01T06:54:36.345Z,10.97
2018-09-01T06:57:04.735Z,9.70
2018-09-01T06:59:32.970Z,9.37
2018-09-01T07:02:01.237Z,11.23
2018-09-01T07:04:29.493Z,10.57
2018-09-01T07:06:57.769Z,9.30
2018-09-01T07:09:25.985Z,10.07
2018-09-01T07:11:54.223Z,9.93
2018-09-01T07:14:22.469Z,9.67
2018-09-01T07:16:50.718Z,8.57
2018-09-01T07:19:19.036Z,11.13
2018-09-01T07:21:47.332Z,6.70
2018-09-01T07:24:15.561Z,8.60
2018-09-01T07:26:43.933Z,7.27
2018-09-01T07:29:12.217Z,9.50
2018-09-01T07:31:40.485Z,11.97
2018-09-01T07:34:08.770Z,11.23
2018-09-01T07:36:37.020Z,6.50
2018-09-01T07:39:06.189Z,6.03
2018-09-01T07:41:34.394Z,6.87
2018-09-01T07:44:02.910Z,7.43
2018-09-01T07:46:31.151Z,9.83
2018-09-01T07:48:59.365Z,7.60
2018-09-01T07:51:27.628Z,7.00
2018-09-01T07:53:55.850Z,6.70
2018-09-01T07:56:24.119Z,8.70
2018-09-01T07:58:52.345Z,6.87
2018-09-01T08:01:20.592Z,11.63
2018-09-01T08:03:48.829Z,7.93
2018-09-01T08:06:17.077Z,6.10
2018-09-01T08:08:45.314Z,5.40
2018-09-01T08:11:13.612Z,4.90
2018-09-01T08:13:41.943Z,3.43
2018-09-01T08:16:10.091Z,4.37
2018-09-01T08:18:38.323Z,7.80
2018-09-01T08:21:07.260Z,3.13
2018-09-01T08:23:35.526Z,5.23
2018-09-01T08:26:03.842Z,5.07
2018-09-01T08:28:32.056Z,5.43
2018-09-01T08:31:00.346Z,4.60
2018-09-01T08:33:28.815Z,3.60
2018-09-01T08:35:57.016Z,5.07
2018-09-01T08:38:25.287Z,5.57
2018-09-01T08:40:53.559Z,6.70
2018-09-01T08:43:21.820Z,3.23
2018-09-01T08:45:50.091Z,3.47
2018-09-01T08:48:18.336Z,5.77
2018-09-01T08:50:46.617Z,4.23
2018-09-01T08:53:14.888Z,3.63
2018-09-01T08:55:43.106Z,3.70
2018-09-01T08:58:11.415Z,5.33
2018-09-01T09:00:39.560Z,4.60
2018-09-01T09:03:07.715Z,5.63
2018-09-01T09:05:35.975Z,5.30
2018-09-01T09:08:04.256Z,9.20
2018-09-01T09:10:32.424Z,5.13
2018-09-01T09:13:00.589Z,2.50
2018-09-01T09:15:28.763Z,4.47
2018-09-01T09:17:56.924Z,3.67
2018-09-01T09:20:25.080Z,4.13
2018-09-01T09:22:53.222Z,4.03
2018-09-01T09:25:21.380Z,2.33
2018-09-01T09:27:49.530Z,5.20
2018-09-01T09:30:17.684Z,4.67
2018-09-01T09:32:45.840Z,3.17
2018-09-01T09:35:14.010Z,3.73
2018-09-01T09:37:42.147Z,3.27
2018-09-01T09:40:10.308Z,4.63
2018-09-01T09:42:38.464Z,5.77
2018-09-01T09:45:06.636Z,4.90
2018-09-01T09:47:34.808Z,1.87
2018-09-01T09:50:02.962Z,4.43
2018-09-01T09:52:31.120Z,3.43
2018-09-01T09:54:59.352Z,3.77
2018-09-01T09:57:27.500Z,2.53
2018-09-01T09:59:55.646Z,8.50
2018-09-01T10:02:23.810Z,7.27
2018-09-01T10:04:51.953Z,4.27
2018-09-01T10:07:20.114Z,4.30
2018-09-01T10:09:48.268Z,3.53
2018-09-01T10:12:16.436Z,3.30
2018-09-01T10:14:44.592Z,3.73
2018-09-01T10:17:12.752Z,5.67
2018-09-01T10:19:40.989Z,5.70
2018-09-01T10:22:09.157Z,3.17
2018-09-01T10:24:37.311Z,4.00
2018-09-01T10:27:05.551Z,3.00
2018-09-01T10:29:33.620Z,3.53
2018-09-01T10:32:01.759Z,3.00
2018-09-01T10:34:29.931Z,1.30
2018-09-01T10:36:58.090Z,4.00
2018-09-01T10:39:26.261Z,5.50
2018-09-01T10:41:54.413Z,4.70
2018-09-01T10:44:22.595Z,3.17
2018-09-01T10:46:50.788Z,3.37
2018-09-01T10:49:18.962Z,2.80
2018-09-01T10:51:47.116Z,3.47
2018-09-01T10:54:15.255Z,3.50
2018-09-01T10:56:43.405Z,3.57
2018-09-01T10:59:11.830Z,3.20
2018-09-01T11:01:39.852Z,2.80
2018-09-01T11:04:08.005Z,1.90
2018-09-01T11:06:36.213Z,4.40
2018-09-01T11:09:06.088Z,3.20
2018-09-01T11:11:34.247Z,3.80
2018-09-01T11:14:02.408Z,3.63
2018-09-01T11:16:30.556Z,4.83
2018-09-01T11:18:58.712Z,3.40
2018-09-01T11:21:26.860Z,3.40
2018-09-01T11:23:55.039Z,4.53
2018-09-01T11:26:23.200Z,3.33
2018-09-01T11:28:51.432Z,3.43
2018-09-01T11:31:19.583Z,4.03
2018-09-01T11:33:47.908Z,3.67
2018-09-01T11:36:16.080Z,4.33
2018-09-01T11:38:44.232Z,2.90
2018-09-01T11:41:12.404Z,3.83
2018-09-01T11:43:40.556Z,3.90
2018-09-01T11:46:08.704Z,4.23
2018-09-01T11:48:36.864Z,3.43
2018-09-01T11:51:05.085Z,3.73
2018-09-01T11:53:33.303Z,3.03
2018-09-01T11:56:01.419Z,4.40
2018-09-01T11:58:29.604Z,2.93
2018-09-01T12:00:57.793Z,3.33
2018-09-01T12:03:25.959Z,5.13
2018-09-01T12:05:54.180Z,3.63
2018-09-01T12:08:22.350Z,4.77
2018-09-01T12:10:50.512Z,4.67
2018-09-01T12:13:18.693Z,4.17
2018-09-01T12:15:47.268Z,2.13
2018-09-01T12:18:15.368Z,3.83
2018-09-01T12:20:43.540Z,3.03
2018-09-01T12:23:11.748Z,5.50
2018-09-01T12:25:39.971Z,2.37
2018-09-01T12:28:08.162Z,3.60
2018-09-01T12:30:36.404Z,4.10
2018-09-01T12:33:04.620Z,5.10
2018-09-01T12:35:32.852Z,3.37
2018-09-01T12:38:01.061Z,2.57
2018-09-01T12:40:29.301Z,2.37
2018-09-01T12:42:57.504Z,3.03
2018-09-01T12:45:25.688Z,3.80
2018-09-01T12:47:53.900Z,5.00
2018-09-01T12:50:22.116Z,3.60
2018-09-01T12:52:50.400Z,3.43
2018-09-01T12:55:18.576Z,3.40
2018-09-01T12:57:46.786Z,5.73
2018-09-01T13:00:14.980Z,4.07
2018-09-01T13:02:43.214Z,2.33
2018-09-01T13:05:11.442Z,1.83
2018-09-01T13:07:39.624Z,4.90
2018-09-01T13:10:07.825Z,3.83
2018-09-01T13:12:36.016Z,3.33
2018-09-01T13:15:04.264Z,2.73
2018-09-01T13:17:32.536Z,8.23
2018-09-01T13:20:00.752Z,3.93
2018-09-01T13:22:28.948Z,2.53
2018-09-01T13:24:57.136Z,2.97
2018-09-01T13:27:25.307Z,4.87
2018-09-01T13:29:53.480Z,3.57
2018-09-01T13:32:21.668Z,4.00
2018-09-01T13:34:49.878Z,10.57
2018-09-01T13:37:18.076Z,4.93
2018-09-01T13:39:46.216Z,3.47
2018-09-01T13:42:14.416Z,2.87
2018-09-01T13:44:42.664Z,5.30
2018-09-01T13:47:10.858Z,2.87
2018-09-01T13:49:39.095Z,4.33
2018-09-01T13:52:07.278Z,6.10
2018-09-01T13:54:35.460Z,2.87
2018-09-01T13:57:03.662Z,3.63
2018-09-01T13:59:31.924Z,3.93
2018-09-01T14:02:00.109Z,3.93
2018-09-01T14:04:28.340Z,4.37
2018-09-01T14:06:56.571Z,4.07
2018-09-01T14:09:24.756Z,2.53
2018-09-01T14:11:52.956Z,3.23
2018-09-01T14:14:21.250Z,3.80
2018-09-01T14:16:49.361Z,3.40
2018-09-01T14:19:17.536Z,3.40
2018-09-01T14:21:45.764Z,1.90
2018-09-01T14:24:13.960Z,3.47
2018-09-01T14:26:42.150Z,2.60
2018-09-01T14:29:10.381Z,1.83
2018-09-01T14:31:38.564Z,4.07
2018-09-01T14:34:06.827Z,5.40
2018-09-01T14:36:34.984Z,4.67
2018-09-01T14:39:03.482Z,3.63
2018-09-01T14:41:31.665Z,3.17
2018-09-01T14:43:59.867Z,4.30
2018-09-01T14:46:28.057Z,2.43
2018-09-01T14:48:56.504Z,4.93
2018-09-01T14:51:24.683Z,3.57
2018-09-01T14:53:52.884Z,3.60
2018-09-01T14:56:21.080Z,5.17
2018-09-01T14:58:49.288Z,4.37
2018-09-01T15:01:17.516Z,4.40
2018-09-01T15:03:45.712Z,4.63
2018-09-01T15:06:14.116Z,5.13
2018-09-01T15:08:42.312Z,3.10
2018-09-01T15:11:10.512Z,4.47
2018-09-01T15:13:38.999Z,5.93
2018-09-01T15:16:07.204Z,3.60
2018-09-01T15:18:35.386Z,3.10
2018-09-01T15:21:03.581Z,4.20
2018-09-01T15:23:31.762Z,3.43
2018-09-01T15:25:59.953Z,2.97
2018-09-01T15:28:28.201Z,6.73
2018-09-01T15:30:56.336Z,4.57
2018-09-01T15:33:24.512Z,3.17
2018-09-01T15:35:52.725Z,3.07
2018-09-01T15:38:21.121Z,4.30
2018-09-01T15:40:49.293Z,4.50
2018-09-01T15:43:17.492Z,5.53
2018-09-01T15:45:45.652Z,3.57
2018-09-01T15:48:13.857Z,3.53
2018-09-01T15:50:42.060Z,2.63
2018-09-01T15:53:10.264Z,5.00
2018-09-01T15:55:38.447Z,3.60
2018-09-01T15:58:06.653Z,2.43
2018-09-01T16:00:34.809Z,5.57
2018-09-01T16:03:03.020Z,3.67
2018-09-01T16:05:31.243Z,12.90
2018-09-01T16:07:59.404Z,5.67
2018-09-01T16:10:27.589Z,6.93
2018-09-01T16:12:55.780Z,4.20
2018-09-01T16:15:23.961Z,5.23
2018-09-01T16:17:52.159Z,3.13
2018-09-01T16:20:20.381Z,4.63
2018-09-01T16:22:48.565Z,3.37
2018-09-01T16:25:16.739Z,5.83
2018-09-01T16:27:44.927Z,3.93
2018-09-01T16:30:13.150Z,3.47
2018-09-01T16:32:41.348Z,5.23
2018-09-01T16:35:09.580Z,3.77
2018-09-01T16:37:37.830Z,6.77
2018-09-01T16:40:06.823Z,4.23
2018-09-01T16:42:35.008Z,5.33
2018-09-01T16:45:03.192Z,5.23
2018-09-01T16:47:31.414Z,4.77
2018-09-01T16:50:01.922Z,3.50
2018-09-01T16:52:30.336Z,7.90
2018-09-01T16:54:58.852Z,3.90
2018-09-01T16:57:27.246Z,2.83
2018-09-01T16:59:55.614Z,6.53
2018-09-01T17:02:23.969Z,4.40
2018-09-01T17:04:52.268Z,3.97
2018-09-01T17:07:20.685Z,5.23
2018-09-01T17:09:49.182Z,2.07
2018-09-01T17:12:17.672Z,3.90
2018-09-01T17:14:45.961Z,5.70
2018-09-01T17:17:14.895Z,4.73
2018-09-01T17:19:43.311Z,1.67
2018-09-01T17:22:12.373Z,2.80
2018-09-01T17:24:41.038Z,5.20
2018-09-01T17:27:09.292Z,3.53
2018-09-01T17:29:37.653Z,3.10
2018-09-01T17:32:06.074Z,5.70
2018-09-01T17:34:34.354Z,5.10
2018-09-01T17:37:02.717Z,4.80
2018-09-01T17:39:31.012Z,2.57
2018-09-01T17:41:59.160Z,4.90
2018-09-01T17:44:27.296Z,4.97
2018-09-01T17:46:55.450Z,6.50
2018-09-01T17:49:23.671Z,7.53
2018-09-01T17:51:51.830Z,4.37
2018-09-01T17:54:19.994Z,10.40
2018-09-01T17:56:48.168Z,9.77
2018-09-01T17:59:16.351Z,7.13
2018-09-01T18:01:44.921Z,7.67
2018-09-01T18:04:13.177Z,4.10
2018-09-01T18:06:41.405Z,13.17
2018-09-01T18:09:09.588Z,5.20
2018-09-01T18:11:37.857Z,5.60
2018-09-01T18:14:06.216Z,9.20
2018-09-01T18:16:35.951Z,8.83
2018-09-01T18:19:04.139Z,4.87
2018-09-01T18:21:32.402Z,2.70
2018-09-01T18:24:00.572Z,5.13
2018-09-01T18:26:28.750Z,6.73
2018-09-01T18:28:58.322Z,14.13
2018-09-01T18:31:26.628Z,9.20
2018-09-01T18:33:55.717Z,9.03
2018-09-01T18:36:23.900Z,5.40
2018-09-01T18:38:52.217Z,6.30
2018-09-01T18:41:20.382Z,8.43
2018-09-01T18:43:48.559Z,9.83
2018-09-01T18:46:16.762Z,10.40
2018-09-01T18:48:44.908Z,5.97
2018-09-01T18:51:13.077Z,8.80
2018-09-01T18:53:41.248Z,8.40
2018-09-01T18:56:09.408Z,5.23
2018-09-01T18:58:37.589Z,5.10
2018-09-01T19:01:05.816Z,13.37
2018-09-01T19:03:33.988Z,8.83
2018-09-01T19:06:02.194Z,5.97
2018-09-01T19:08:30.332Z,4.73
2018-09-01T19:10:58.472Z,6.87
2018-09-01T19:13:26.901Z,5.87
2018-09-01T19:15:55.088Z,10.17
2018-09-01T19:18:23.248Z,5.30
2018-09-01T19:20:51.399Z,5.63
2018-09-01T19:23:19.544Z,7.97
2018-09-01T19:25:47.696Z,6.10
2018-09-01T19:28:16.116Z,7.03
2018-09-01T19:30:44.308Z,7.27
2018-09-01T19:33:12.480Z,5.63
2018-09-01T19:35:40.668Z,7.10
2018-09-01T19:38:08.851Z,11.33
2018-09-01T19:40:37.032Z,8.43
2018-09-01T19:43:05.372Z,8.77
2018-09-01T19:45:33.778Z,9.53
2018-09-01T19:48:01.769Z,7.53
2018-09-01T19:50:29.940Z,7.63
2018-09-01T19:52:58.104Z,8.10
2018-09-01T19:55:26.264Z,8.37
2018-09-01T19:57:54.488Z,12.60
2018-09-01T20:00:22.632Z,7.53
2018-09-01T20:02:50.818Z,8.73
2018-09-01T20:05:19.050Z,6.03
2018-09-01T20:07:47.225Z,8.50
2018-09-01T20:10:15.468Z,6.87
2018-09-01T20:12:43.636Z,8.23
2018-09-01T20:15:11.803Z,4.90
2018-09-01T20:17:39.968Z,7.70
2018-09-01T20:20:08.696Z,10.70
2018-09-01T20:22:36.912Z,10.13
2018-09-01T20:25:05.077Z,9.10
2018-09-01T20:27:33.224Z,8.80
2018-09-01T20:30:01.376Z,8.40
2018-09-01T20:32:29.556Z,8.03
2018-09-01T20:35:03.103Z,7.53
2018-09-01T20:37:31.360Z,9.47
2018-09-01T20:39:59.563Z,10.27
2018-09-01T20:42:27.713Z,7.40
2018-09-01T20:44:55.872Z,7.93
2018-09-01T20:47:24.154Z,8.30
2018-09-01T20:49:52.308Z,6.47
2018-09-01T20:52:20.461Z,9.40
2018-09-01T20:54:48.643Z,8.23
2018-09-01T20:57:16.758Z,8.83
2018-09-01T20:59:44.921Z,7.20
2018-09-01T21:02:13.076Z,7.77
2018-09-01T21:04:41.244Z,9.60
2018-09-01T21:07:09.396Z,8.60
2018-09-01T21:09:37.568Z,7.53
2018-09-01T21:12:05.750Z,8.00
2018-09-01T21:14:33.970Z,8.23
2018-09-01T21:17:02.120Z,9.67
2018-09-01T21:19:30.286Z,9.00
2018-09-01T21:21:58.428Z,8.00
2018-09-01T21:24:26.612Z,7.63
2018-09-01T21:26:54.764Z,9.73
2018-09-01T21:29:22.904Z,7.13
2018-09-01T21:31:51.168Z,7.40
2018-09-01T21:34:19.393Z,8.60
2018-09-01T21:36:47.522Z,10.20
2018-09-01T21:39:15.677Z,10.90
2018-09-01T21:41:43.836Z,6.60
2018-09-01T21:44:12.004Z,8.77
2018-09-01T21:46:40.180Z,9.33
2018-09-01T21:49:08.344Z,12.03
2018-09-01T21:51:36.525Z,9.83
2018-09-01T21:54:04.692Z,6.87
2018-09-01T21:56:32.856Z,7.97
2018-09-01T21:59:01.005Z,9.73
2018-09-01T22:01:35.080Z,7.47
2018-09-01T22:04:03.245Z,7.37
2018-09-01T22:06:31.413Z,10.93
2018-09-01T22:08:59.615Z,9.07
2018-09-01T22:11:27.796Z,10.67
2018-09-01T22:13:55.960Z,7.47
2018-09-01T22:16:24.120Z,9.70
2018-09-01T22:18:52.280Z,7.73
2018-09-01T22:21:20.468Z,9.33
2018-09-01T22:23:48.628Z,7.03
2018-09-01T22:26:16.944Z,9.23
2018-09-01T22:28:45.111Z,8.77
2018-09-01T22:31:13.272Z,8.73
2018-09-01T22:33:41.459Z,10.97
2018-09-01T22:36:09.603Z,9.63
2018-09-01T22:38:37.756Z,8.30
2018-09-01T22:41:05.916Z,7.77
2018-09-01T22:43:34.060Z,10.53
2018-09-01T22:46:02.263Z,7.90
2018-09-01T22:48:30.449Z,8.70
2018-09-01T22:50:58.620Z,8.80
2018-09-01T22:53:26.780Z,8.93
2018-09-01T22:55:54.934Z,8.67
2018-09-01T22:58:23.088Z,6.67
2018-09-01T23:00:51.260Z,9.10
2018-09-01T23:03:19.428Z,7.60
2018-09-01T23:05:47.576Z,10.93
2018-09-01T23:08:15.724Z,8.87
2018-09-01T23:10:43.904Z,8.60
2018-09-01T23:13:12.051Z,8.80
2018-09-01T23:15:40.204Z,8.23
2018-09-01T23:18:08.368Z,7.90
2018-09-01T23:20:36.516Z,8.00
2018-09-01T23:23:04.706Z,7.13
2018-09-01T23:25:32.875Z,7.60
2018-09-01T23:28:01.024Z,6.57
2018-09-01T23:30:29.176Z,7.60
2018-09-01T23:32:57.332Z,7.03
2018-09-01T23:35:25.492Z,9.20
2018-09-01T23:37:53.669Z,7.23
2018-09-01T23:40:21.833Z,9.50
2018-09-01T23:42:49.991Z,8.50
2018-09-01T23:45:18.153Z,7.80
2018-09-01T23:47:46.327Z,8.13
2018-09-01T23:50:14.475Z,9.83
2018-09-01T23:52:42.655Z,8.40
2018-09-01T23:55:10.836Z,7.13
2018-09-01T23:57:39.003Z,8.30
